ETO weather

El Tornillo Airport
Rionegro, Santander Department, Colombia

Public forecast

Using degrees Celsius for public forecast. Weather courtesy of forecast.io.

Closest aviation weather report (METAR) to El Tornillo Airport

Closest report is YariguĂ­es Airport, 37.5 nm (69.5 km) SSW. Retrieved 2019/10/22 12:00 UTC (24 minutes ago):

SKEJ 221200Z 00000KT 9999 SCT008 BKN120 23/23 A2990

Closest aviation forecast (TAF) to El Tornillo Airport

Closest forecast is Palonegro Airport, 39.5 nm (73.2 km) SE. Retrieved 2019/10/22 12:33 UTC (0 seconds ago):

TAF TAF SKBG 221030Z 2212/2312 00000KT 0400 FG VV001 BECMG 2214/2216 33009KT 9999 NSW SCT016 TEMPO 2219/2223 4000 TSRA BCFG SCT008CB BKN070 BECMG 2300/2302 00000KT TX26/2219Z TN18/2311Z